Latest Weather Observations for Daly Waters

IDD60801

Issued at 8:01 pm CST Thursday 26 May 2016 (issued every 30 minutes, with the page automatically refreshed every 10 minutes)

About weather observations | Map of weather stations | Latest weather observations for NT | Other Formats
Station Details ID: 014626 Name: DALY WATERS AIRSTRIP Lat: -16.26 Lon: 133.38 Height: 209.84 m
Data from the previous 72 hours. | See also: Recent months at Daly Waters
Date/Time
CST
Temp
°C
App
Temp
°C
Dew
Point
Rel
Hum
%
Delta-T
°C
Wind Press
QNH
hPa
Press
MSL
hPa
Rain
since 9 am
mm
Dir
 
Spd
km/h
Gust
km/h
Spd
kts
Gust
kts
26/08:00pm 22.4 23.5 15.7 66 4.1 WSW 4 6 2 3 1013.7 1012.7 0.0
26/07:30pm 23.0 24.7 15.1 61 4.7 CALM 0 0 0 0 1013.3 1012.4 0.0
26/07:00pm 24.4 26.1 15.1 56 5.6 CALM 0 0 0 0 1012.8 1011.8 0.0
26/06:30pm 26.6 27.9 14.0 46 7.6 CALM 0 0 0 0 1012.3 1011.3 0.0
26/06:00pm 31.1 32.3 13.8 34 10.5 CALM 0 0 0 0 1012.0 1011.0 0.0
26/05:30pm 33.3 33.5 12.9 29 12.3 ENE 4 6 2 3 1011.8 1010.8 0.0
26/05:00pm 34.0 33.6 12.4 27 13.0 E 6 7 3 4 1011.7 1010.7 0.0
26/04:30pm 34.5 34.2 11.6 25 13.7 S 4 7 2 4 1011.7 1010.7 0.0
26/04:00pm 34.7 34.7 12.4 26 13.5 NNE 4 11 2 6 1011.7 1010.7 0.0
26/03:30pm 34.6 34.0 12.3 26 13.4 SE 7 19 4 10 1011.8 1010.8 0.0
26/03:00pm 34.4 34.1 12.7 27 13.2 NE 6 13 3 7 1011.9 1010.9 0.0
26/02:30pm 34.0 33.8 12.9 28 12.8 S 6 13 3 7 1012.1 1011.1 0.0
26/02:00pm 33.8 33.9 12.7 27 12.8 E 4 13 2 7 1012.6 1011.6 0.0
26/01:30pm 33.3 33.5 12.9 29 12.3 ESE 4 11 2 6 1013.2 1012.3 0.0
26/01:00pm 33.4 33.4 13.5 30 12.2 SE 6 13 3 7 1014.0 1013.0 0.0
26/12:30pm 32.4 32.1 12.6 30 11.9 SE 6 11 3 6 1014.5 1013.5 0.0
26/12:00pm 33.1 33.3 14.2 32 11.6 E 6 13 3 7 1015.0 1014.0 0.0
26/11:30am 32.2 32.7 13.9 33 11.2 NNE 4 11 2 6 1015.4 1014.4 0.0
26/11:00am 31.4 31.9 15.0 37 10.2 SE 6 13 3 7 1015.7 1014.7 0.0
26/10:30am 30.4 31.0 15.7 41 9.2 ESE 7 11 4 6 1016.1 1015.1 0.0
26/10:00am 29.4 30.7 17.2 47 7.8 E 6 9 3 5 1016.3 1015.3 0.0
26/09:30am 27.9 29.6 17.1 51 6.8 ESE 4 9 2 5 1016.3 1015.3 0.0
26/09:00am 26.3 28.2 16.8 56 5.9 E 2 6 1 3 1016.1 1015.1 0.0
26/08:30am 23.2 25.6 17.0 68 3.8 CALM 0 2 0 1 1015.9 1014.9 0.0
26/08:00am 19.7 21.8 16.3 81 2.1 CALM 0 0 0 0 1015.6 1014.6 0.0
26/07:30am 16.6 17.5 15.1 91 0.9 SSW 4 4 2 2 1015.4 1014.4 0.0
26/07:00am 15.8 17.1 14.0 89 1.0 CALM 0 0 0 0 1014.9 1013.9 0.0
26/06:30am 15.9 17.1 13.9 88 1.1 CALM 0 0 0 0 1014.8 1013.8 0.0
26/06:00am 16.2 17.2 14.4 89 1.0 N 2 9 1 5 1014.5 1013.5 0.0
26/05:30am 16.2 17.5 14.0 87 1.3 CALM 0 0 0 0 1014.2 1013.2 0.0
26/05:00am 16.4 17.8 14.4 88 1.2 CALM 0 0 0 0 1014.0 1013.0 0.0
26/04:30am 16.5 17.9 14.3 87 1.3 CALM 0 0 0 0 1014.1 1013.1 0.0
26/04:00am 16.8 18.3 14.6 87 1.3 CALM 0 0 0 0 1014.0 1013.0 0.0
26/03:30am 17.0 18.5 14.6 86 1.4 CALM 0 0 0 0 1014.1 1013.1 0.0
26/03:00am 17.2 18.8 14.8 86 1.4 CALM 0 0 0 0 1014.0 1013.0 0.0
26/02:30am 17.4 19.0 15.0 86 1.4 CALM 0 0 0 0 1014.0 1013.0 0.0
26/02:00am 17.7 19.3 15.0 84 1.6 CALM 0 0 0 0 1014.0 1013.0 0.0
26/01:30am 17.9 19.6 15.2 84 1.6 CALM 0 0 0 0 1014.2 1013.2 0.0
26/01:00am 18.1 19.8 15.2 83 1.7 CALM 0 0 0 0 1014.3 1013.3 0.0
26/12:30am 18.5 20.3 15.4 82 1.8 CALM 0 2 0 1 1014.2 1013.2 0.0
26/12:00am 19.2 21.1 15.7 80 2.1 CALM 0 2 0 1 1014.4 1013.4 0.0
 
Date/Time
CST
Temp
°C
App
Temp
°C
Dew
Point
Rel
Hum
%
Delta-T
°C
Wind Press
QNH
hPa
Press
MSL
hPa
Rain
since 9 am
mm
Dir
 
Spd
km/h
Gust
km/h
Spd
kts
Gust
kts
25/11:30pm 19.5 20.4 16.2 81 2.0 SW 6 11 3 6 1014.6 1013.6 0.0
25/11:00pm 19.2 21.2 16.1 82 1.9 CALM 0 0 0 0 1014.3 1013.3 0.0
25/10:30pm 19.5 21.5 16.0 80 2.1 CALM 0 0 0 0 1014.3 1013.3 0.0
25/10:00pm 19.9 22.0 16.2 79 2.2 CALM 0 0 0 0 1014.4 1013.4 0.0
25/09:30pm 20.4 22.5 16.2 77 2.5 CALM 0 0 0 0 1014.3 1013.3 0.0
25/09:00pm 20.9 23.1 16.5 76 2.7 CALM 0 0 0 0 1014.1 1013.1 0.0
25/08:30pm 21.2 23.4 16.4 74 2.9 CALM 0 0 0 0 1013.8 1012.8 0.0
25/08:00pm 22.0 24.2 16.5 71 3.4 CALM 0 0 0 0 1013.4 1012.5 0.0
25/07:30pm 22.9 25.2 16.7 68 3.8 CALM 0 0 0 0 1013.2 1012.3 0.0
25/07:00pm 24.4 26.6 16.6 61 4.8 CALM 0 0 0 0 1012.7 1011.7 0.0
25/06:30pm 25.5 27.4 15.8 55 6.0 CALM 0 0 0 0 1012.4 1011.4 0.0
25/06:00pm 29.3 31.3 16.1 44 8.3 CALM 0 0 0 0 1012.0 1011.0 0.0
25/05:30pm 31.2 32.1 15.2 38 9.9 N 4 6 2 3 1011.6 1010.6 0.0
25/05:00pm 31.7 33.3 14.8 36 10.5 CALM 0 0 0 0 1011.4 1010.4 0.0
25/04:30pm 31.3 32.3 13.1 33 11.0 CALM 0 4 0 2 1011.3 1010.3 0.0
25/04:00pm 31.2 31.4 13.0 33 10.9 ESE 4 9 2 5 1011.2 1010.2 0.0
25/03:30pm 32.5 33.0 14.1 32 11.3 NW 4 9 2 5 1011.4 1010.4 0.0
25/03:00pm 31.7 32.5 14.8 36 10.5 NNW 4 11 2 6 1011.5 1010.5 0.0
25/02:30pm 30.8 32.0 14.8 37 9.9 ENE 2 6 1 3 1011.8 1010.8 0.0
25/02:00pm 31.4 32.3 16.2 40 9.6 SE 6 11 3 6 1012.1 1011.1 0.0
25/01:30pm 31.3 32.6 16.1 40 9.6 NNE 4 9 2 5 1012.7 1011.7 0.0
25/01:00pm 30.5 31.7 16.9 44 8.6 NE 6 13 3 7 1013.4 1012.5 0.0
25/12:30pm 30.0 31.4 16.4 44 8.6 ESE 4 7 2 4 1013.9 1012.9 0.0
25/12:00pm 29.7 31.7 17.8 48 7.6 SE 4 6 2 3 1014.5 1013.5 0.0
25/11:30am 29.4 30.5 17.9 50 7.4 NE 9 15 5 8 1014.9 1013.9 0.0
25/11:00am 28.3 30.0 18.1 54 6.5 ENE 6 15 3 8 1015.4 1014.4 0.0
25/10:30am 27.7 29.5 18.4 57 6.0 ESE 6 9 3 5 1015.6 1014.6 0.0
25/10:00am 27.0 28.8 18.8 60 5.3 E 7 13 4 7 1015.9 1014.9 0.0
25/09:30am 26.0 27.5 18.9 65 4.6 ESE 9 13 5 7 1015.9 1014.9 0.0
25/09:00am 24.8 26.6 18.7 69 3.9 ESE 7 11 4 6 1015.7 1014.7 0.0
25/08:30am 22.8 24.7 18.6 77 2.7 ESE 6 9 3 5 1015.5 1014.5 0.0
25/08:00am 20.5 22.7 18.4 88 1.3 SE 4 7 2 4 1015.5 1014.5 0.0
25/07:30am 17.1 18.9 15.6 91 0.9 CALM 0 4 0 2 1015.3 1014.3 0.0
25/07:00am 16.0 16.5 14.0 88 1.1 SSE 4 4 2 2 1015.0 1014.0 0.0
25/06:30am 16.0 16.9 14.0 88 1.1 SSE 2 2 1 1 1014.8 1013.8 0.0
25/06:00am 16.2 17.5 14.2 88 1.1 CALM 0 0 0 0 1014.6 1013.6 0.0
25/05:30am 16.4 17.4 14.4 88 1.2 S 2 2 1 1 1014.2 1013.2 0.0
25/05:00am 16.6 17.6 14.4 87 1.3 SSW 2 2 1 1 1014.1 1013.1 0.0
25/04:30am 16.8 18.3 14.6 87 1.3 CALM 0 0 0 0 1014.1 1013.1 0.0
25/04:00am 17.0 18.5 14.6 86 1.4 CALM 0 0 0 0 1014.1 1013.1 0.0
25/03:30am 17.3 18.9 14.8 85 1.5 CALM 0 4 0 2 1014.2 1013.2 0.0
25/03:00am 17.9 19.3 15.3 85 1.5 SE 2 4 1 2 1014.4 1013.4 0.0
25/02:30am 18.4 20.1 15.1 81 1.9 CALM 0 2 0 1 1014.5 1013.5 0.0
25/02:00am 19.2 20.2 15.3 78 2.3 SE 4 4 2 2 1014.5 1013.5 0.0
25/01:30am 20.8 22.2 16.4 76 2.7 ESE 4 6 2 3 1014.6 1013.6 0.0
25/01:00am 21.5 22.7 16.9 75 2.8 SE 6 9 3 5 1014.7 1013.7 0.0
25/12:30am 21.3 22.4 16.5 74 2.9 SE 6 7 3 4 1014.9 1013.9 0.0
25/12:00am 21.7 22.7 16.4 72 3.2 SSE 6 9 3 5 1015.0 1014.0 0.0
 
Date/Time
CST
Temp
°C
App
Temp
°C
Dew
Point
Rel
Hum
%
Delta-T
°C
Wind Press
QNH
hPa
Press
MSL
hPa
Rain
since 9 am
mm
Dir
 
Spd
km/h
Gust
km/h
Spd
kts
Gust
kts
24/11:30pm 21.5 22.4 16.2 72 3.2 SSE 6 7 3 4 1015.1 1014.1 0.0
24/11:00pm 21.8 22.7 16.1 70 3.5 SSE 6 7 3 4 1015.1 1014.1 0.0
24/10:30pm 22.5 23.8 16.1 67 3.9 SE 4 6 2 3 1015.3 1014.3 0.0
24/10:00pm 22.8 23.6 15.9 65 4.2 SE 6 7 3 4 1015.3 1014.3 0.0
24/09:30pm 23.7 24.6 16.0 62 4.7 SE 6 7 3 4 1015.2 1014.2 0.0
24/09:00pm 24.1 24.9 15.9 60 5.0 SE 6 9 3 5 1015.0 1014.0 0.0
24/08:30pm 24.2 25.0 15.9 59 5.1 SSE 6 9 3 5 1014.7 1013.7 0.0
24/08:00pm 23.5 24.4 16.5 65 4.3 SSE 7 9 4 5 1014.3 1013.3 0.0
24/07:30pm 23.1 24.1 15.4 62 4.7 SSE 4 4 2 2 1013.9 1012.9 0.0
24/07:00pm 24.2 25.4 14.9 56 5.6 S 2 4 1 2 1013.3 1012.4 0.0
24/06:30pm 26.7 27.4 14.5 47 7.4 SSE 4 4 2 2 1012.9 1011.9 0.0
24/06:00pm 29.2 29.5 14.6 41 8.9 SSE 6 11 3 6 1012.6 1011.6 0.0
24/05:30pm 30.6 30.6 14.3 37 10.0 SSE 7 15 4 8 1012.3 1011.3 0.0
24/05:00pm 31.3 30.7 13.6 34 10.7 SSE 9 17 5 9 1012.2 1011.2 0.0
24/04:30pm 32.4 32.1 14.5 33 11.1 SSE 9 19 5 10 1012.1 1011.1 0.0
24/04:00pm 32.3 32.0 14.4 33 11.0 SSW 9 19 5 10 1012.2 1011.2 0.0
24/03:30pm 32.4 32.9 15.0 35 10.8 SSW 6 15 3 8 1012.3 1011.3 0.0
24/03:00pm 31.5 31.7 14.6 36 10.4 ESE 7 13 4 7 1012.4 1011.4 0.0
24/02:30pm 32.2 32.8 15.2 35 10.6 ESE 6 13 3 7 1012.7 1011.7 0.0
24/02:00pm 31.8 31.8 15.3 37 10.3 SE 9 20 5 11 1013.1 1012.2 0.0
24/01:30pm 31.6 32.1 15.5 37 10.1 ESE 7 15 4 8 1013.7 1012.7 0.0
24/01:00pm 31.1 31.5 16.3 41 9.3 SSE 9 15 5 8 1014.2 1013.2 0.0
24/12:30pm 30.6 31.1 16.6 43 8.9 ESE 9 20 5 11 1014.9 1013.9 0.0
24/12:00pm 29.8 30.8 16.9 45 8.2 SSE 7 15 4 8 1015.5 1014.5 0.0
24/11:30am 29.3 29.9 16.8 47 7.9 SSE 9 17 5 9 1015.8 1014.8 0.0
24/11:00am 28.4 29.2 17.3 51 7.0 SE 9 17 5 9 1016.0 1015.0 0.0
24/10:30am 28.9 30.6 18.4 53 6.8 SE 7 19 4 10 1016.1 1015.1 0.0
24/10:00am 27.1 28.0 17.6 56 6.0 SE 9 17 5 9 1016.3 1015.3 0.0
24/09:30am 26.9 27.6 17.9 57 5.7 SE 11 20 6 11 1016.3 1015.3 0.0
24/09:00am 25.9 26.8 17.5 59 5.3 SE 9 17 5 9 1016.2 1015.2 0.0
24/08:30am 24.5 25.3 17.2 63 4.6 SE 9 17 5 9 1016.2 1015.2 0.0
24/08:00am 22.4 23.5 16.7 70 3.5 SE 6 9 3 5 1015.6 1014.6 0.0
24/07:30am 20.2 20.9 16.0 77 2.5 ESE 7 11 4 6 1015.4 1014.4 0.0
24/07:00am 18.4 19.0 15.3 82 1.8 S 6 9 3 5 1015.4 1014.4 0.0
24/06:30am 19.0 20.0 15.3 79 2.2 S 4 6 2 3 1014.9 1013.9 0.0
24/06:00am 18.5 19.2 15.6 83 1.7 SSE 6 9 3 5 1014.5 1013.5 0.0
24/05:30am 18.4 19.7 15.1 81 1.9 S 2 4 1 2 1014.1 1013.1 0.0
24/05:00am 18.7 20.3 15.0 79 2.2 CALM 0 0 0 0 1013.9 1012.9 0.0
24/04:30am 19.5 20.8 15.2 76 2.6 ENE 2 2 1 1 1013.7 1012.7 0.0
24/04:00am 20.4 21.3 15.2 72 3.1 E 4 6 2 3 1013.6 1012.6 0.0
24/03:30am 20.1 20.8 15.5 75 2.8 ENE 6 9 3 5 1013.4 1012.5 0.0
24/03:00am 19.4 19.9 15.1 76 2.5 E 6 7 3 4 1013.6 1012.6 0.0
24/02:30am 19.9 21.2 15.1 74 2.8 ESE 2 4 1 2 1014.1 1013.1 0.0
24/02:00am 20.9 21.8 15.0 69 3.5 SE 4 6 2 3 1014.3 1013.3 0.0
24/01:30am 21.7 22.5 14.8 65 4.1 SSE 4 6 2 3 1014.5 1013.5 0.0
24/01:00am 22.7 23.3 15.3 63 4.5 SSE 6 7 3 4 1014.6 1013.6 0.0
24/12:30am 22.8 23.3 15.1 62 4.6 SE 6 7 3 4 1014.7 1013.7 0.0
24/12:00am 22.9 23.3 14.7 60 4.9 SSE 6 7 3 4 1014.8 1013.8 0.0
 
Date/Time
CST
Temp
°C
App
Temp
°C
Dew
Point
Rel
Hum
%
Delta-T
°C
Wind Press
QNH
hPa
Press
MSL
hPa
Rain
since 9 am
mm
Dir
 
Spd
km/h
Gust
km/h
Spd
kts
Gust
kts
23/11:30pm 23.7 24.2 14.9 57 5.3 SE 6 7 3 4 1014.9 1013.9 0.0
23/11:00pm 23.6 24.2 15.4 60 5.0 SE 6 9 3 5 1015.1 1014.1 0.0
23/10:30pm 21.6 22.5 15.2 67 3.8 SSE 4 7 2 4 1015.0 1014.0 0.0
23/10:00pm 21.9 23.1 15.0 65 4.1 SE 2 4 1 2 1014.9 1013.9 0.0
23/09:30pm 22.7 23.4 14.5 60 4.9 SE 4 6 2 3 1014.8 1013.8 0.0
23/09:00pm 22.3 22.9 15.2 64 4.3 SE 6 6 3 3 1014.5 1013.5 0.0
23/08:30pm 22.9 23.8 15.2 62 4.6 ESE 4 4 2 2 1014.1 1013.1 0.0

Other Formats:

Comma delimited format used in spreadsheet applications
http://www.bom.gov.au/fwo/IDD60801/IDD60801.94234.axf

JavaScript Object Notation format (JSON) in row-major order
http://www.bom.gov.au/fwo/IDD60801/IDD60801.94234.json